sensor_id;sensor_type;location;lat;lon;timestamp;P1;durP1;ratioP1;P2;durP2;ratioP2
74650;SDS011;63169;46.042;14.592;2022-10-16T00:01:20;48.38;;;21.58;;
74650;SDS011;63169;46.042;14.592;2022-10-16T00:03:47;47.53;;;20.33;;
74650;SDS011;63169;46.042;14.592;2022-10-16T00:06:13;48.28;;;19.27;;
74650;SDS011;63169;46.042;14.592;2022-10-16T00:08:39;42.22;;;21.00;;
74650;SDS011;63169;46.042;14.592;2022-10-16T00:11:07;48.22;;;21.85;;
74650;SDS011;63169;46.042;14.592;2022-10-16T00:13:36;45.25;;;21.48;;
74650;SDS011;63169;46.042;14.592;2022-10-16T00:16:03;55.72;;;24.25;;
74650;SDS011;63169;46.042;14.592;2022-10-16T00:18:29;44.55;;;20.73;;
74650;SDS011;63169;46.042;14.592;2022-10-16T00:20:55;45.65;;;20.85;;
74650;SDS011;63169;46.042;14.592;2022-10-16T00:23:21;47.70;;;22.02;;
74650;SDS011;63169;46.042;14.592;2022-10-16T00:26:00;50.85;;;21.70;;
74650;SDS011;63169;46.042;14.592;2022-10-16T00:28:28;51.63;;;22.52;;
74650;SDS011;63169;46.042;14.592;2022-10-16T00:30:53;44.47;;;21.38;;
74650;SDS011;63169;46.042;14.592;2022-10-16T00:33:19;51.03;;;22.92;;
74650;SDS011;63169;46.042;14.592;2022-10-16T00:35:45;46.65;;;21.15;;
74650;SDS011;63169;46.042;14.592;2022-10-16T00:38:10;44.50;;;21.65;;
74650;SDS011;63169;46.042;14.592;2022-10-16T00:40:35;49.83;;;21.58;;
74650;SDS011;63169;46.042;14.592;2022-10-16T00:43:02;52.63;;;22.08;;
74650;SDS011;63169;46.042;14.592;2022-10-16T00:45:29;52.78;;;23.70;;
74650;SDS011;63169;46.042;14.592;2022-10-16T00:47:55;55.55;;;22.88;;
74650;SDS011;63169;46.042;14.592;2022-10-16T00:50:27;52.33;;;24.65;;
74650;SDS011;63169;46.042;14.592;2022-10-16T00:52:54;52.53;;;22.58;;
74650;SDS011;63169;46.042;14.592;2022-10-16T00:55:20;50.25;;;21.83;;
74650;SDS011;63169;46.042;14.592;2022-10-16T00:57:46;43.92;;;20.55;;
74650;SDS011;63169;46.042;14.592;2022-10-16T01:00:14;51.20;;;22.95;;
74650;SDS011;63169;46.042;14.592;2022-10-16T01:02:42;47.50;;;21.40;;
74650;SDS011;63169;46.042;14.592;2022-10-16T01:05:08;51.58;;;21.60;;
74650;SDS011;63169;46.042;14.592;2022-10-16T01:13:14;51.35;;;22.15;;
74650;SDS011;63169;46.042;14.592;2022-10-16T01:15:46;47.22;;;22.13;;
74650;SDS011;63169;46.042;14.592;2022-10-16T01:21:15;52.03;;;22.58;;
74650;SDS011;63169;46.042;14.592;2022-10-16T01:26:27;48.53;;;22.40;;
74650;SDS011;63169;46.042;14.592;2022-10-16T01:29:06;49.55;;;20.90;;
74650;SDS011;63169;46.042;14.592;2022-10-16T01:31:35;49.67;;;23.70;;
74650;SDS011;63169;46.042;14.592;2022-10-16T01:34:10;46.53;;;19.95;;
74650;SDS011;63169;46.042;14.592;2022-10-16T01:36:40;49.10;;;21.00;;
74650;SDS011;63169;46.042;14.592;2022-10-16T01:39:08;47.65;;;22.55;;
74650;SDS011;63169;46.042;14.592;2022-10-16T01:41:40;48.67;;;21.77;;
74650;SDS011;63169;46.042;14.592;2022-10-16T01:44:12;51.03;;;24.33;;
74650;SDS011;63169;46.042;14.592;2022-10-16T01:46:42;45.78;;;21.00;;
74650;SDS011;63169;46.042;14.592;2022-10-16T01:49:08;48.58;;;23.05;;
74650;SDS011;63169;46.042;14.592;2022-10-16T01:51:34;48.92;;;21.98;;
74650;SDS011;63169;46.042;14.592;2022-10-16T01:54:00;51.72;;;22.75;;
74650;SDS011;63169;46.042;14.592;2022-10-16T01:56:26;45.70;;;22.02;;
74650;SDS011;63169;46.042;14.592;2022-10-16T01:58:53;49.08;;;21.55;;
74650;SDS011;63169;46.042;14.592;2022-10-16T02:01:24;48.85;;;23.10;;
74650;SDS011;63169;46.042;14.592;2022-10-16T02:03:53;45.75;;;21.50;;
74650;SDS011;63169;46.042;14.592;2022-10-16T02:06:19;48.05;;;22.48;;
74650;SDS011;63169;46.042;14.592;2022-10-16T02:08:44;51.92;;;24.17;;
74650;SDS011;63169;46.042;14.592;2022-10-16T02:11:10;53.50;;;25.17;;
74650;SDS011;63169;46.042;14.592;2022-10-16T02:13:41;46.05;;;22.20;;
74650;SDS011;63169;46.042;14.592;2022-10-16T02:16:10;47.55;;;23.00;;
74650;SDS011;63169;46.042;14.592;2022-10-16T02:18:37;49.72;;;24.23;;
74650;SDS011;63169;46.042;14.592;2022-10-16T02:23:51;55.33;;;22.00;;
74650;SDS011;63169;46.042;14.592;2022-10-16T02:26:31;50.60;;;22.52;;
74650;SDS011;63169;46.042;14.592;2022-10-16T02:29:05;53.28;;;22.35;;
74650;SDS011;63169;46.042;14.592;2022-10-16T02:31:33;58.03;;;23.80;;
74650;SDS011;63169;46.042;14.592;2022-10-16T02:34:01;49.45;;;24.08;;
74650;SDS011;63169;46.042;14.592;2022-10-16T02:36:28;56.45;;;24.75;;
74650;SDS011;63169;46.042;14.592;2022-10-16T02:38:54;54.97;;;23.17;;
74650;SDS011;63169;46.042;14.592;2022-10-16T02:41:20;54.42;;;23.00;;
74650;SDS011;63169;46.042;14.592;2022-10-16T02:43:46;55.78;;;24.42;;
74650;SDS011;63169;46.042;14.592;2022-10-16T02:46:12;54.92;;;23.67;;
74650;SDS011;63169;46.042;14.592;2022-10-16T02:48:37;59.13;;;24.90;;
74650;SDS011;63169;46.042;14.592;2022-10-16T02:51:04;59.20;;;25.70;;
74650;SDS011;63169;46.042;14.592;2022-10-16T02:53:30;59.92;;;25.55;;
74650;SDS011;63169;46.042;14.592;2022-10-16T02:55:55;58.83;;;23.50;;
74650;SDS011;63169;46.042;14.592;2022-10-16T02:58:21;53.15;;;23.95;;
74650;SDS011;63169;46.042;14.592;2022-10-16T03:00:46;53.72;;;25.02;;
74650;SDS011;63169;46.042;14.592;2022-10-16T03:03:11;52.60;;;24.38;;
74650;SDS011;63169;46.042;14.592;2022-10-16T03:05:37;59.05;;;26.58;;
74650;SDS011;63169;46.042;14.592;2022-10-16T03:08:02;60.22;;;26.45;;
74650;SDS011;63169;46.042;14.592;2022-10-16T03:10:28;56.75;;;25.88;;
74650;SDS011;63169;46.042;14.592;2022-10-16T03:12:53;58.08;;;26.40;;
74650;SDS011;63169;46.042;14.592;2022-10-16T03:15:18;59.95;;;25.65;;
74650;SDS011;63169;46.042;14.592;2022-10-16T03:17:44;60.92;;;24.55;;
74650;SDS011;63169;46.042;14.592;2022-10-16T03:20:09;64.68;;;25.77;;
74650;SDS011;63169;46.042;14.592;2022-10-16T03:22:34;63.72;;;26.73;;
74650;SDS011;63169;46.042;14.592;2022-10-16T03:25:00;54.72;;;24.02;;
74650;SDS011;63169;46.042;14.592;2022-10-16T03:27:25;53.55;;;23.83;;
74650;SDS011;63169;46.042;14.592;2022-10-16T03:29:51;49.30;;;21.15;;
74650;SDS011;63169;46.042;14.592;2022-10-16T03:32:16;50.17;;;22.33;;
74650;SDS011;63169;46.042;14.592;2022-10-16T03:34:41;50.42;;;22.60;;
74650;SDS011;63169;46.042;14.592;2022-10-16T03:37:07;49.13;;;21.75;;
74650;SDS011;63169;46.042;14.592;2022-10-16T03:39:32;49.42;;;20.33;;
74650;SDS011;63169;46.042;14.592;2022-10-16T03:41:57;46.55;;;21.15;;
74650;SDS011;63169;46.042;14.592;2022-10-16T03:44:23;52.58;;;23.42;;
74650;SDS011;63169;46.042;14.592;2022-10-16T03:46:48;50.63;;;21.25;;
74650;SDS011;63169;46.042;14.592;2022-10-16T03:49:13;47.25;;;22.40;;
74650;SDS011;63169;46.042;14.592;2022-10-16T03:51:39;49.58;;;21.40;;
74650;SDS011;63169;46.042;14.592;2022-10-16T03:54:04;48.70;;;21.98;;
74650;SDS011;63169;46.042;14.592;2022-10-16T03:56:29;43.85;;;20.58;;
74650;SDS011;63169;46.042;14.592;2022-10-16T03:58:55;58.63;;;22.23;;
74650;SDS011;63169;46.042;14.592;2022-10-16T04:01:20;44.97;;;20.27;;
74650;SDS011;63169;46.042;14.592;2022-10-16T04:03:45;45.97;;;20.48;;
74650;SDS011;63169;46.042;14.592;2022-10-16T04:06:11;49.30;;;21.17;;
74650;SDS011;63169;46.042;14.592;2022-10-16T04:08:36;46.25;;;20.50;;
74650;SDS011;63169;46.042;14.592;2022-10-16T04:11:02;46.45;;;22.63;;
74650;SDS011;63169;46.042;14.592;2022-10-16T04:13:28;44.10;;;21.73;;
74650;SDS011;63169;46.042;14.592;2022-10-16T04:15:53;48.20;;;22.67;;
74650;SDS011;63169;46.042;14.592;2022-10-16T04:18:19;45.97;;;22.27;;
74650;SDS011;63169;46.042;14.592;2022-10-16T04:20:44;49.28;;;22.02;;
74650;SDS011;63169;46.042;14.592;2022-10-16T04:23:09;56.03;;;22.25;;
74650;SDS011;63169;46.042;14.592;2022-10-16T04:25:35;47.83;;;23.17;;
74650;SDS011;63169;46.042;14.592;2022-10-16T04:28:00;48.17;;;22.30;;
74650;SDS011;63169;46.042;14.592;2022-10-16T04:30:26;49.15;;;23.67;;
74650;SDS011;63169;46.042;14.592;2022-10-16T04:32:51;48.55;;;22.75;;
74650;SDS011;63169;46.042;14.592;2022-10-16T04:35:17;41.22;;;21.58;;
74650;SDS011;63169;46.042;14.592;2022-10-16T04:37:44;44.55;;;22.38;;
74650;SDS011;63169;46.042;14.592;2022-10-16T04:40:09;43.22;;;22.42;;
74650;SDS011;63169;46.042;14.592;2022-10-16T04:42:35;41.10;;;19.63;;
74650;SDS011;63169;46.042;14.592;2022-10-16T04:45:00;38.08;;;19.92;;
74650;SDS011;63169;46.042;14.592;2022-10-16T04:47:25;40.17;;;19.95;;
74650;SDS011;63169;46.042;14.592;2022-10-16T04:49:51;38.00;;;19.20;;
74650;SDS011;63169;46.042;14.592;2022-10-16T04:52:16;45.05;;;19.63;;
74650;SDS011;63169;46.042;14.592;2022-10-16T04:54:42;33.22;;;18.58;;
74650;SDS011;63169;46.042;14.592;2022-10-16T04:57:10;39.40;;;19.55;;
74650;SDS011;63169;46.042;14.592;2022-10-16T04:59:35;42.45;;;20.30;;
74650;SDS011;63169;46.042;14.592;2022-10-16T05:02:00;45.72;;;21.25;;
74650;SDS011;63169;46.042;14.592;2022-10-16T05:04:26;43.60;;;18.90;;
74650;SDS011;63169;46.042;14.592;2022-10-16T05:06:51;48.55;;;22.55;;
74650;SDS011;63169;46.042;14.592;2022-10-16T05:09:16;45.47;;;21.88;;
74650;SDS011;63169;46.042;14.592;2022-10-16T05:11:42;50.50;;;23.13;;
74650;SDS011;63169;46.042;14.592;2022-10-16T05:14:07;51.97;;;21.33;;
74650;SDS011;63169;46.042;14.592;2022-10-16T05:16:33;49.03;;;22.73;;
74650;SDS011;63169;46.042;14.592;2022-10-16T05:18:58;42.25;;;20.50;;
74650;SDS011;63169;46.042;14.592;2022-10-16T05:21:24;42.10;;;21.15;;
74650;SDS011;63169;46.042;14.592;2022-10-16T05:23:49;48.58;;;22.40;;
74650;SDS011;63169;46.042;14.592;2022-10-16T05:26:14;44.67;;;21.23;;
74650;SDS011;63169;46.042;14.592;2022-10-16T05:28:40;39.80;;;19.42;;
74650;SDS011;63169;46.042;14.592;2022-10-16T05:31:05;36.55;;;19.45;;
74650;SDS011;63169;46.042;14.592;2022-10-16T05:33:32;40.72;;;20.17;;
74650;SDS011;63169;46.042;14.592;2022-10-16T05:36:00;40.22;;;19.45;;
74650;SDS011;63169;46.042;14.592;2022-10-16T05:38:27;43.25;;;20.83;;
74650;SDS011;63169;46.042;14.592;2022-10-16T05:40:52;51.60;;;20.70;;
74650;SDS011;63169;46.042;14.592;2022-10-16T05:43:18;53.38;;;21.17;;
74650;SDS011;63169;46.042;14.592;2022-10-16T05:45:43;43.40;;;21.42;;
74650;SDS011;63169;46.042;14.592;2022-10-16T05:48:09;43.80;;;20.83;;
74650;SDS011;63169;46.042;14.592;2022-10-16T05:50:34;41.42;;;20.98;;
74650;SDS011;63169;46.042;14.592;2022-10-16T05:52:59;40.05;;;19.02;;
74650;SDS011;63169;46.042;14.592;2022-10-16T05:55:25;45.65;;;20.65;;
74650;SDS011;63169;46.042;14.592;2022-10-16T05:57:53;43.85;;;20.10;;
74650;SDS011;63169;46.042;14.592;2022-10-16T06:00:19;42.80;;;20.65;;
74650;SDS011;63169;46.042;14.592;2022-10-16T06:02:44;45.92;;;22.20;;
74650;SDS011;63169;46.042;14.592;2022-10-16T06:05:10;43.40;;;20.88;;
74650;SDS011;63169;46.042;14.592;2022-10-16T06:07:35;43.08;;;20.30;;
74650;SDS011;63169;46.042;14.592;2022-10-16T06:10:01;46.10;;;19.70;;
74650;SDS011;63169;46.042;14.592;2022-10-16T06:12:26;48.55;;;20.80;;
74650;SDS011;63169;46.042;14.592;2022-10-16T06:14:52;45.90;;;20.45;;
74650;SDS011;63169;46.042;14.592;2022-10-16T06:17:17;48.30;;;20.73;;
74650;SDS011;63169;46.042;14.592;2022-10-16T06:19:43;47.22;;;21.15;;
74650;SDS011;63169;46.042;14.592;2022-10-16T06:22:08;44.40;;;21.08;;
74650;SDS011;63169;46.042;14.592;2022-10-16T06:24:33;44.03;;;21.58;;
74650;SDS011;63169;46.042;14.592;2022-10-16T06:26:59;52.50;;;21.90;;
74650;SDS011;63169;46.042;14.592;2022-10-16T06:29:24;52.25;;;22.50;;
74650;SDS011;63169;46.042;14.592;2022-10-16T06:31:49;50.47;;;22.15;;
74650;SDS011;63169;46.042;14.592;2022-10-16T06:34:15;43.63;;;21.48;;
74650;SDS011;63169;46.042;14.592;2022-10-16T06:36:40;39.72;;;19.15;;
74650;SDS011;63169;46.042;14.592;2022-10-16T06:39:06;41.92;;;21.10;;
74650;SDS011;63169;46.042;14.592;2022-10-16T06:41:32;45.45;;;20.80;;
74650;SDS011;63169;46.042;14.592;2022-10-16T06:43:58;61.53;;;29.85;;
74650;SDS011;63169;46.042;14.592;2022-10-16T06:46:24;49.90;;;23.33;;
74650;SDS011;63169;46.042;14.592;2022-10-16T06:51:16;53.10;;;22.80;;
74650;SDS011;63169;46.042;14.592;2022-10-16T06:53:44;71.15;;;38.85;;
74650;SDS011;63169;46.042;14.592;2022-10-16T06:56:12;55.17;;;24.38;;
74650;SDS011;63169;46.042;14.592;2022-10-16T06:58:39;57.10;;;26.17;;
74650;SDS011;63169;46.042;14.592;2022-10-16T07:01:06;59.28;;;25.85;;
74650;SDS011;63169;46.042;14.592;2022-10-16T07:03:32;52.75;;;24.08;;
74650;SDS011;63169;46.042;14.592;2022-10-16T07:06:00;55.50;;;23.30;;
74650;SDS011;63169;46.042;14.592;2022-10-16T07:08:26;58.83;;;24.77;;
74650;SDS011;63169;46.042;14.592;2022-10-16T07:11:01;64.80;;;27.67;;
74650;SDS011;63169;46.042;14.592;2022-10-16T07:13:27;66.50;;;28.73;;
74650;SDS011;63169;46.042;14.592;2022-10-16T07:15:53;62.63;;;27.40;;
74650;SDS011;63169;46.042;14.592;2022-10-16T07:18:18;61.17;;;26.02;;
74650;SDS011;63169;46.042;14.592;2022-10-16T07:20:44;55.60;;;25.80;;
74650;SDS011;63169;46.042;14.592;2022-10-16T07:23:09;58.00;;;25.05;;
74650;SDS011;63169;46.042;14.592;2022-10-16T07:25:34;54.03;;;24.75;;
74650;SDS011;63169;46.042;14.592;2022-10-16T07:28:00;54.70;;;25.90;;
74650;SDS011;63169;46.042;14.592;2022-10-16T07:30:25;53.67;;;24.33;;
74650;SDS011;63169;46.042;14.592;2022-10-16T07:32:50;54.33;;;24.25;;
74650;SDS011;63169;46.042;14.592;2022-10-16T07:35:16;52.05;;;23.83;;
74650;SDS011;63169;46.042;14.592;2022-10-16T07:37:44;56.08;;;24.52;;
74650;SDS011;63169;46.042;14.592;2022-10-16T07:40:10;48.92;;;23.15;;
74650;SDS011;63169;46.042;14.592;2022-10-16T07:42:36;45.03;;;22.38;;
74650;SDS011;63169;46.042;14.592;2022-10-16T07:45:01;48.25;;;23.15;;
74650;SDS011;63169;46.042;14.592;2022-10-16T07:47:26;48.90;;;22.60;;
74650;SDS011;63169;46.042;14.592;2022-10-16T07:49:52;50.78;;;22.83;;
74650;SDS011;63169;46.042;14.592;2022-10-16T07:52:17;57.05;;;24.75;;
74650;SDS011;63169;46.042;14.592;2022-10-16T07:54:42;45.47;;;22.58;;
74650;SDS011;63169;46.042;14.592;2022-10-16T07:57:08;50.75;;;21.65;;
74650;SDS011;63169;46.042;14.592;2022-10-16T07:59:33;51.88;;;23.88;;
74650;SDS011;63169;46.042;14.592;2022-10-16T08:01:58;51.90;;;23.42;;
74650;SDS011;63169;46.042;14.592;2022-10-16T08:04:24;50.38;;;23.65;;
74650;SDS011;63169;46.042;14.592;2022-10-16T08:06:49;60.40;;;25.40;;
74650;SDS011;63169;46.042;14.592;2022-10-16T08:09:14;48.15;;;23.90;;
74650;SDS011;63169;46.042;14.592;2022-10-16T08:11:40;49.67;;;21.85;;
74650;SDS011;63169;46.042;14.592;2022-10-16T08:14:05;55.22;;;24.50;;
74650;SDS011;63169;46.042;14.592;2022-10-16T08:16:30;47.15;;;22.05;;
74650;SDS011;63169;46.042;14.592;2022-10-16T08:18:56;53.42;;;23.58;;
74650;SDS011;63169;46.042;14.592;2022-10-16T08:21:22;46.70;;;21.95;;
74650;SDS011;63169;46.042;14.592;2022-10-16T08:26:14;47.28;;;21.88;;
74650;SDS011;63169;46.042;14.592;2022-10-16T08:28:40;81.97;;;45.78;;
74650;SDS011;63169;46.042;14.592;2022-10-16T08:31:08;65.13;;;28.42;;
74650;SDS011;63169;46.042;14.592;2022-10-16T08:33:35;73.65;;;29.60;;
74650;SDS011;63169;46.042;14.592;2022-10-16T08:36:02;68.97;;;29.92;;
74650;SDS011;63169;46.042;14.592;2022-10-16T08:38:28;65.90;;;27.60;;
74650;SDS011;63169;46.042;14.592;2022-10-16T08:40:54;63.78;;;27.77;;
74650;SDS011;63169;46.042;14.592;2022-10-16T08:48:50;63.55;;;27.00;;
74650;SDS011;63169;46.042;14.592;2022-10-16T08:51:18;54.90;;;24.67;;
74650;SDS011;63169;46.042;14.592;2022-10-16T08:53:48;64.75;;;27.88;;
74650;SDS011;63169;46.042;14.592;2022-10-16T08:56:17;64.97;;;26.98;;
74650;SDS011;63169;46.042;14.592;2022-10-16T08:58:42;57.88;;;25.58;;
74650;SDS011;63169;46.042;14.592;2022-10-16T09:01:11;54.78;;;24.17;;
74650;SDS011;63169;46.042;14.592;2022-10-16T09:11:41;57.15;;;25.50;;
74650;SDS011;63169;46.042;14.592;2022-10-16T09:14:18;57.28;;;23.58;;
74650;SDS011;63169;46.042;14.592;2022-10-16T09:17:03;57.85;;;25.75;;
74650;SDS011;63169;46.042;14.592;2022-10-16T09:19:37;57.95;;;27.10;;
74650;SDS011;63169;46.042;14.592;2022-10-16T09:22:16;65.53;;;28.38;;
74650;SDS011;63169;46.042;14.592;2022-10-16T09:24:42;61.50;;;27.75;;
74650;SDS011;63169;46.042;14.592;2022-10-16T09:27:14;61.80;;;29.20;;
74650;SDS011;63169;46.042;14.592;2022-10-16T09:29:39;65.50;;;30.67;;
74650;SDS011;63169;46.042;14.592;2022-10-16T09:32:12;75.90;;;31.75;;
74650;SDS011;63169;46.042;14.592;2022-10-16T09:35:13;72.15;;;32.05;;
74650;SDS011;63169;46.042;14.592;2022-10-16T09:37:36;71.72;;;32.58;;
74650;SDS011;63169;46.042;14.592;2022-10-16T09:40:01;80.85;;;34.05;;
74650;SDS011;63169;46.042;14.592;2022-10-16T09:42:31;78.47;;;35.75;;
74650;SDS011;63169;46.042;14.592;2022-10-16T09:44:57;69.63;;;30.73;;
74650;SDS011;63169;46.042;14.592;2022-10-16T09:47:24;65.50;;;31.02;;
74650;SDS011;63169;46.042;14.592;2022-10-16T09:52:20;57.78;;;29.42;;
74650;SDS011;63169;46.042;14.592;2022-10-16T09:54:58;63.50;;;29.20;;
74650;SDS011;63169;46.042;14.592;2022-10-16T09:57:25;64.32;;;28.50;;
74650;SDS011;63169;46.042;14.592;2022-10-16T09:59:52;53.90;;;24.55;;
74650;SDS011;63169;46.042;14.592;2022-10-16T10:04:54;41.58;;;22.42;;
74650;SDS011;63169;46.042;14.592;2022-10-16T10:07:23;44.63;;;23.05;;
74650;SDS011;63169;46.042;14.592;2022-10-16T10:09:50;43.42;;;22.40;;
74650;SDS011;63169;46.042;14.592;2022-10-16T10:12:23;46.20;;;24.23;;
74650;SDS011;63169;46.042;14.592;2022-10-16T10:14:56;42.00;;;22.17;;
74650;SDS011;63169;46.042;14.592;2022-10-16T10:17:27;39.55;;;21.75;;
74650;SDS011;63169;46.042;14.592;2022-10-16T10:19:59;39.85;;;20.15;;
74650;SDS011;63169;46.042;14.592;2022-10-16T10:24:58;44.30;;;22.27;;
74650;SDS011;63169;46.042;14.592;2022-10-16T10:30:27;42.47;;;22.60;;
74650;SDS011;63169;46.042;14.592;2022-10-16T11:00:06;33.95;;;19.75;;
74650;SDS011;63169;46.042;14.592;2022-10-16T11:02:48;37.97;;;20.45;;
74650;SDS011;63169;46.042;14.592;2022-10-16T11:10:52;35.03;;;19.83;;
74650;SDS011;63169;46.042;14.592;2022-10-16T11:16:21;34.95;;;19.25;;
74650;SDS011;63169;46.042;14.592;2022-10-16T11:19:12;38.28;;;22.27;;
74650;SDS011;63169;46.042;14.592;2022-10-16T11:21:45;36.50;;;19.88;;
74650;SDS011;63169;46.042;14.592;2022-10-16T11:26:48;35.45;;;21.13;;
74650;SDS011;63169;46.042;14.592;2022-10-16T11:29:33;35.75;;;21.13;;
74650;SDS011;63169;46.042;14.592;2022-10-16T11:32:03;35.50;;;19.70;;
74650;SDS011;63169;46.042;14.592;2022-10-16T11:34:34;38.60;;;21.85;;
74650;SDS011;63169;46.042;14.592;2022-10-16T11:37:09;35.92;;;20.00;;
74650;SDS011;63169;46.042;14.592;2022-10-16T11:39:38;37.22;;;21.35;;
74650;SDS011;63169;46.042;14.592;2022-10-16T11:47:27;34.70;;;20.50;;
74650;SDS011;63169;46.042;14.592;2022-10-16T11:50:33;35.90;;;20.42;;
74650;SDS011;63169;46.042;14.592;2022-10-16T11:53:12;33.55;;;19.90;;
74650;SDS011;63169;46.042;14.592;2022-10-16T11:55:42;34.00;;;19.90;;
74650;SDS011;63169;46.042;14.592;2022-10-16T12:03:36;39.50;;;22.05;;
74650;SDS011;63169;46.042;14.592;2022-10-16T12:08:48;36.78;;;20.35;;
74650;SDS011;63169;46.042;14.592;2022-10-16T12:14:06;39.22;;;22.08;;
74650;SDS011;63169;46.042;14.592;2022-10-16T12:16:38;38.25;;;22.10;;
74650;SDS011;63169;46.042;14.592;2022-10-16T12:19:16;39.20;;;21.20;;
74650;SDS011;63169;46.042;14.592;2022-10-16T12:21:43;37.40;;;21.63;;
74650;SDS011;63169;46.042;14.592;2022-10-16T12:26:56;37.08;;;21.75;;
74650;SDS011;63169;46.042;14.592;2022-10-16T12:31:51;36.05;;;20.70;;
74650;SDS011;63169;46.042;14.592;2022-10-16T12:34:59;38.97;;;21.98;;
74650;SDS011;63169;46.042;14.592;2022-10-16T12:37:18;40.15;;;22.00;;
74650;SDS011;63169;46.042;14.592;2022-10-16T12:39:46;35.80;;;21.58;;
74650;SDS011;63169;46.042;14.592;2022-10-16T12:42:23;37.90;;;21.67;;
74650;SDS011;63169;46.042;14.592;2022-10-16T12:44:58;34.13;;;20.02;;
74650;SDS011;63169;46.042;14.592;2022-10-16T12:52:57;37.78;;;21.13;;
74650;SDS011;63169;46.042;14.592;2022-10-16T12:55:23;35.28;;;21.35;;
74650;SDS011;63169;46.042;14.592;2022-10-16T13:00:36;36.70;;;21.35;;
74650;SDS011;63169;46.042;14.592;2022-10-16T13:05:46;39.45;;;21.13;;
74650;SDS011;63169;46.042;14.592;2022-10-16T13:08:36;37.78;;;21.75;;
74650;SDS011;63169;46.042;14.592;2022-10-16T13:11:14;42.05;;;22.08;;
74650;SDS011;63169;46.042;14.592;2022-10-16T13:27:29;37.53;;;21.35;;
74650;SDS011;63169;46.042;14.592;2022-10-16T13:30:36;36.58;;;20.90;;
74650;SDS011;63169;46.042;14.592;2022-10-16T13:32:59;33.13;;;19.23;;
74650;SDS011;63169;46.042;14.592;2022-10-16T13:35:27;34.42;;;20.75;;
74650;SDS011;63169;46.042;14.592;2022-10-16T13:38:04;34.83;;;21.55;;
74650;SDS011;63169;46.042;14.592;2022-10-16T13:40:30;34.90;;;19.65;;
74650;SDS011;63169;46.042;14.592;2022-10-16T13:42:55;39.47;;;22.10;;
74650;SDS011;63169;46.042;14.592;2022-10-16T13:45:21;32.85;;;19.92;;
74650;SDS011;63169;46.042;14.592;2022-10-16T13:48:00;35.00;;;20.25;;
74650;SDS011;63169;46.042;14.592;2022-10-16T13:50:29;33.03;;;18.75;;
74650;SDS011;63169;46.042;14.592;2022-10-16T13:53:12;33.28;;;19.83;;
74650;SDS011;63169;46.042;14.592;2022-10-16T13:55:38;36.17;;;20.05;;
74650;SDS011;63169;46.042;14.592;2022-10-16T13:58:16;36.75;;;22.00;;
74650;SDS011;63169;46.042;14.592;2022-10-16T14:00:52;34.53;;;21.10;;
74650;SDS011;63169;46.042;14.592;2022-10-16T14:03:19;35.33;;;20.00;;
74650;SDS011;63169;46.042;14.592;2022-10-16T14:05:48;32.38;;;19.25;;
74650;SDS011;63169;46.042;14.592;2022-10-16T14:08:16;34.65;;;20.55;;
74650;SDS011;63169;46.042;14.592;2022-10-16T14:10:41;36.75;;;22.40;;
74650;SDS011;63169;46.042;14.592;2022-10-16T14:13:07;37.28;;;21.98;;
74650;SDS011;63169;46.042;14.592;2022-10-16T14:15:37;34.40;;;19.80;;
74650;SDS011;63169;46.042;14.592;2022-10-16T14:18:03;32.33;;;19.90;;
74650;SDS011;63169;46.042;14.592;2022-10-16T14:20:30;32.65;;;18.33;;
74650;SDS011;63169;46.042;14.592;2022-10-16T14:23:01;32.03;;;19.08;;
74650;SDS011;63169;46.042;14.592;2022-10-16T14:25:42;31.80;;;17.40;;
74650;SDS011;63169;46.042;14.592;2022-10-16T14:30:34;33.47;;;19.80;;
74650;SDS011;63169;46.042;14.592;2022-10-16T14:33:05;32.95;;;19.50;;
74650;SDS011;63169;46.042;14.592;2022-10-16T14:35:43;32.78;;;18.75;;
74650;SDS011;63169;46.042;14.592;2022-10-16T14:38:16;29.63;;;18.70;;
74650;SDS011;63169;46.042;14.592;2022-10-16T14:40:46;30.10;;;18.23;;
74650;SDS011;63169;46.042;14.592;2022-10-16T14:43:22;32.47;;;17.63;;
74650;SDS011;63169;46.042;14.592;2022-10-16T14:45:56;31.42;;;18.33;;
74650;SDS011;63169;46.042;14.592;2022-10-16T14:48:22;30.13;;;18.13;;
74650;SDS011;63169;46.042;14.592;2022-10-16T14:50:48;29.05;;;17.08;;
74650;SDS011;63169;46.042;14.592;2022-10-16T14:53:13;25.80;;;16.23;;
74650;SDS011;63169;46.042;14.592;2022-10-16T14:55:39;28.35;;;16.63;;
74650;SDS011;63169;46.042;14.592;2022-10-16T14:58:05;28.35;;;17.23;;
74650;SDS011;63169;46.042;14.592;2022-10-16T15:00:44;26.40;;;16.45;;
74650;SDS011;63169;46.042;14.592;2022-10-16T15:03:10;28.65;;;17.52;;
74650;SDS011;63169;46.042;14.592;2022-10-16T15:05:35;27.63;;;16.48;;
74650;SDS011;63169;46.042;14.592;2022-10-16T15:08:01;28.15;;;17.63;;
74650;SDS011;63169;46.042;14.592;2022-10-16T15:10:27;33.70;;;17.90;;
74650;SDS011;63169;46.042;14.592;2022-10-16T15:12:53;25.00;;;16.50;;
74650;SDS011;63169;46.042;14.592;2022-10-16T15:17:50;26.33;;;16.15;;
74650;SDS011;63169;46.042;14.592;2022-10-16T15:20:21;28.25;;;15.70;;
74650;SDS011;63169;46.042;14.592;2022-10-16T15:22:46;27.08;;;16.63;;
74650;SDS011;63169;46.042;14.592;2022-10-16T15:25:18;25.98;;;14.70;;
74650;SDS011;63169;46.042;14.592;2022-10-16T15:27:50;25.20;;;14.77;;
74650;SDS011;63169;46.042;14.592;2022-10-16T15:30:16;25.80;;;14.40;;
74650;SDS011;63169;46.042;14.592;2022-10-16T15:32:41;24.70;;;15.57;;
74650;SDS011;63169;46.042;14.592;2022-10-16T15:35:10;27.23;;;16.30;;
74650;SDS011;63169;46.042;14.592;2022-10-16T15:37:35;24.90;;;14.20;;
74650;SDS011;63169;46.042;14.592;2022-10-16T15:40:00;33.35;;;16.67;;
74650;SDS011;63169;46.042;14.592;2022-10-16T15:42:26;30.08;;;16.08;;
74650;SDS011;63169;46.042;14.592;2022-10-16T15:44:51;27.92;;;14.57;;
74650;SDS011;63169;46.042;14.592;2022-10-16T15:47:17;26.75;;;13.65;;
74650;SDS011;63169;46.042;14.592;2022-10-16T15:49:42;24.73;;;14.70;;
74650;SDS011;63169;46.042;14.592;2022-10-16T15:52:07;25.02;;;15.80;;
74650;SDS011;63169;46.042;14.592;2022-10-16T15:54:33;22.95;;;14.98;;
74650;SDS011;63169;46.042;14.592;2022-10-16T15:56:58;21.85;;;13.05;;
74650;SDS011;63169;46.042;14.592;2022-10-16T15:59:23;23.70;;;13.90;;
74650;SDS011;63169;46.042;14.592;2022-10-16T16:01:49;24.10;;;14.15;;
74650;SDS011;63169;46.042;14.592;2022-10-16T16:04:14;22.15;;;13.80;;
74650;SDS011;63169;46.042;14.592;2022-10-16T16:06:41;23.92;;;13.68;;
74650;SDS011;63169;46.042;14.592;2022-10-16T16:09:09;26.40;;;16.30;;
74650;SDS011;63169;46.042;14.592;2022-10-16T16:11:38;25.88;;;14.70;;
74650;SDS011;63169;46.042;14.592;2022-10-16T16:14:07;27.65;;;16.63;;
74650;SDS011;63169;46.042;14.592;2022-10-16T16:16:37;29.33;;;16.05;;
74650;SDS011;63169;46.042;14.592;2022-10-16T16:19:04;32.53;;;15.88;;
74650;SDS011;63169;46.042;14.592;2022-10-16T16:21:31;27.38;;;16.90;;
74650;SDS011;63169;46.042;14.592;2022-10-16T16:23:56;26.95;;;15.93;;
74650;SDS011;63169;46.042;14.592;2022-10-16T16:28:50;26.58;;;16.02;;